Time;durP1;ratioP1;P1;durP2;ratioP2;P2;SDS_P1;SDS_P2;PMS_P1;PMS_P2;Temp;Humidity;BMP_temperature;BMP_pressure;BME280_temperature;BME280_humidity;BME280_pressure;Samples;Min_cycle;Max_cycle;Signal;HPM_P1;HPM_P2
2022/05/25 00:01:30;;;;;;;33.45;7.53;;;;;;;;;;4990195;28;20480;-45
2022/05/25 00:03:57;;;;;;;38.55;8.75;;;;;;;;;;4991134;28;20054;-44
2022/05/25 00:06:24;;;;;;;34.42;9.18;;;;;;;;;;4990279;28;20121;-42
2022/05/25 00:08:51;;;;;;;30.90;8.27;;;;;;;;;;5004660;28;21210;-44
2022/05/25 00:11:18;;;;;;;38.33;9.43;;;;;;;;;;5009545;28;20030;-43
2022/05/25 00:13:45;;;;;;;38.60;9.88;;;;;;;;;;4998131;28;20018;-44
2022/05/25 00:16:15;;;;;;;34.28;10.43;;;;;;;;;;4998529;28;20477;-46
2022/05/25 00:19:59;;;;;;;34.70;12.35;;;;;;;;;;4998751;28;20024;-44
2022/05/25 00:21:30;;;;;;;38.67;14.00;;;;;;;;;;5002897;28;20579;-47
2022/05/25 00:23:58;;;;;;;34.80;15.10;;;;;;;;;;5002766;28;20069;-43
2022/05/25 00:26:26;;;;;;;38.42;17.08;;;;;;;;;;5001831;28;20047;-44
2022/05/25 00:28:53;;;;;;;49.75;18.38;;;;;;;;;;5003344;28;20090;-44
2022/05/25 00:31:20;;;;;;;46.10;20.42;;;;;;;;;;4993307;28;20030;-44
2022/05/25 00:33:47;;;;;;;49.47;21.65;;;;;;;;;;5002111;28;20027;-43
2022/05/25 00:36:14;;;;;;;51.95;22.00;;;;;;;;;;5002565;28;20033;-45
2022/05/25 00:38:41;;;;;;;41.55;22.23;;;;;;;;;;5003295;28;20499;-43
2022/05/25 00:41:08;;;;;;;51.15;23.13;;;;;;;;;;5001952;28;20101;-44
2022/05/25 00:43:35;;;;;;;50.65;23.20;;;;;;;;;;5004694;28;20096;-44
2022/05/25 00:46:03;;;;;;;55.50;23.95;;;;;;;;;;5007476;28;20388;-44
2022/05/25 00:48:38;;;;;;;49.33;22.42;;;;;;;;;;5001292;28;20373;-44
2022/05/25 00:51:13;;;;;;;46.58;24.00;;;;;;;;;;4992891;28;20030;-45
2022/05/25 00:53:50;;;;;;;52.63;23.95;;;;;;;;;;4992697;28;20034;-44
2022/05/25 00:56:18;;;;;;;52.85;23.67;;;;;;;;;;5004728;28;20497;-43
2022/05/25 00:58:48;;;;;;;52.50;24.15;;;;;;;;;;5012535;28;20045;-42
2022/05/25 01:01:15;;;;;;;54.95;24.92;;;;;;;;;;5011834;28;20092;-44
2022/05/25 01:03:42;;;;;;;52.65;24.52;;;;;;;;;;5013724;28;20029;-44
2022/05/25 01:06:22;;;;;;;55.40;23.70;;;;;;;;;;5012783;28;20022;-42
2022/05/25 01:09:00;;;;;;;53.22;24.33;;;;;;;;;;5012692;28;20113;-43
2022/05/25 01:11:45;;;;;;;52.30;22.73;;;;;;;;;;5012810;28;20049;-45
2022/05/25 01:14:15;;;;;;;51.22;23.45;;;;;;;;;;5011537;28;20108;-45
2022/05/25 01:17:01;;;;;;;47.65;22.30;;;;;;;;;;5011976;28;20038;-44
2022/05/25 01:19:46;;;;;;;51.00;23.35;;;;;;;;;;5011883;28;20128;-43
2022/05/25 01:22:16;;;;;;;47.05;22.42;;;;;;;;;;5011995;28;20037;-44
2022/05/25 01:24:42;;;;;;;46.05;22.73;;;;;;;;;;5011539;28;20057;-44
2022/05/25 01:27:19;;;;;;;51.35;22.55;;;;;;;;;;5012211;28;20041;-43
2022/05/25 01:29:55;;;;;;;45.72;21.60;;;;;;;;;;5011830;28;20058;-43
2022/05/25 01:32:28;;;;;;;49.72;22.10;;;;;;;;;;5012101;28;20419;-44
2022/05/25 01:35:13;;;;;;;46.08;21.13;;;;;;;;;;4992713;28;20026;-43
2022/05/25 01:37:47;;;;;;;41.42;21.80;;;;;;;;;;4992572;28;20026;-47
2022/05/25 01:40:36;;;;;;;41.88;19.95;;;;;;;;;;4993484;28;20029;-43
2022/05/25 01:43:06;;;;;;;43.90;20.73;;;;;;;;;;4991432;28;20069;-46
2022/05/25 01:45:35;;;;;;;44.25;20.35;;;;;;;;;;4993587;28;20089;-50
2022/05/25 01:48:05;;;;;;;43.92;19.17;;;;;;;;;;4992696;28;20038;-45
2022/05/25 01:50:41;;;;;;;44.50;20.83;;;;;;;;;;4992090;28;20080;-42
2022/05/25 01:53:10;;;;;;;42.95;20.60;;;;;;;;;;5001718;28;20637;-43
2022/05/25 01:55:40;;;;;;;38.40;20.15;;;;;;;;;;5011425;28;20029;-44
2022/05/25 01:58:09;;;;;;;43.45;19.95;;;;;;;;;;5012266;28;20038;-46
2022/05/25 02:00:38;;;;;;;40.80;19.63;;;;;;;;;;5012280;28;20539;-45
2022/05/25 02:06:16;;;;;;;40.95;20.23;;;;;;;;;;4965627;28;20038;-46
2022/05/25 02:08:56;;;;;;;35.83;18.60;;;;;;;;;;5000643;28;20659;-43
2022/05/25 02:11:29;;;;;;;39.25;18.60;;;;;;;;;;5000718;28;20026;-43
2022/05/25 02:14:06;;;;;;;37.03;17.25;;;;;;;;;;4999808;28;20026;-42
2022/05/25 02:16:40;;;;;;;38.60;18.58;;;;;;;;;;4999961;28;20128;-47
2022/05/25 02:19:12;;;;;;;36.80;16.92;;;;;;;;;;4999937;28;20169;-44
2022/05/25 02:22:09;;;;;;;35.72;16.70;;;;;;;;;;5000420;28;20034;-48
2022/05/25 02:24:39;;;;;;;39.80;17.45;;;;;;;;;;4982021;28;20137;-44
2022/05/25 02:27:10;;;;;;;33.47;16.30;;;;;;;;;;5000797;28;20495;-43
2022/05/25 02:29:43;;;;;;;33.60;17.55;;;;;;;;;;5001505;28;20042;-45
2022/05/25 02:32:22;;;;;;;35.65;16.15;;;;;;;;;;5001229;28;20033;-45
2022/05/25 02:34:51;;;;;;;35.28;16.35;;;;;;;;;;5007893;28;20038;-45
2022/05/25 02:37:20;;;;;;;35.65;16.70;;;;;;;;;;5011807;28;20395;-43
2022/05/25 02:39:50;;;;;;;32.25;15.63;;;;;;;;;;5012394;28;20029;-43
2022/05/25 02:42:17;;;;;;;32.42;16.67;;;;;;;;;;5011193;28;20032;-43
2022/05/25 02:44:45;;;;;;;29.48;15.68;;;;;;;;;;5012333;28;20022;-44
2022/05/25 02:47:12;;;;;;;37.35;16.27;;;;;;;;;;5012180;28;20092;-44
2022/05/25 02:49:39;;;;;;;30.75;14.15;;;;;;;;;;5011819;28;20496;-48
2022/05/25 02:52:08;;;;;;;27.30;13.73;;;;;;;;;;5012275;28;20096;-46
2022/05/25 02:54:35;;;;;;;33.28;15.23;;;;;;;;;;5011187;28;20034;-48
2022/05/25 02:57:02;;;;;;;28.80;14.55;;;;;;;;;;5011851;28;20125;-43
2022/05/25 02:59:29;;;;;;;29.35;14.05;;;;;;;;;;5011677;28;20499;-45
2022/05/25 03:01:56;;;;;;;32.80;14.90;;;;;;;;;;5004078;28;20026;-43
2022/05/25 03:04:22;;;;;;;34.10;14.55;;;;;;;;;;5000469;28;20027;-44
2022/05/25 03:06:51;;;;;;;26.05;13.88;;;;;;;;;;4999101;28;20022;-43
2022/05/25 03:09:18;;;;;;;26.17;13.10;;;;;;;;;;4999976;28;20042;-44
2022/05/25 03:11:45;;;;;;;30.20;14.35;;;;;;;;;;5000296;28;20030;-43
2022/05/25 03:14:12;;;;;;;25.38;12.60;;;;;;;;;;5001631;28;20080;-43
2022/05/25 03:16:39;;;;;;;26.35;12.63;;;;;;;;;;5000378;28;20026;-43
2022/05/25 03:19:07;;;;;;;28.20;13.18;;;;;;;;;;4999472;28;20026;-50
2022/05/25 03:21:33;;;;;;;28.63;14.10;;;;;;;;;;5001455;28;20038;-47
2022/05/25 03:24:00;;;;;;;26.77;12.90;;;;;;;;;;4979977;28;20034;-45
2022/05/25 03:26:27;;;;;;;24.30;12.93;;;;;;;;;;4974594;28;20448;-42
2022/05/25 03:28:54;;;;;;;21.15;11.50;;;;;;;;;;4992058;28;20046;-44
2022/05/25 03:31:21;;;;;;;19.30;11.63;;;;;;;;;;4991632;28;20540;-43
2022/05/25 03:33:48;;;;;;;24.45;12.07;;;;;;;;;;4992449;28;20033;-46
2022/05/25 03:36:15;;;;;;;22.27;12.73;;;;;;;;;;4991820;28;20031;-43
2022/05/25 03:38:42;;;;;;;26.40;12.60;;;;;;;;;;4991870;28;20056;-45
2022/05/25 03:41:09;;;;;;;21.85;11.57;;;;;;;;;;4992127;28;20088;-45
2022/05/25 03:43:38;;;;;;;23.90;11.35;;;;;;;;;;4991600;28;20489;-45
2022/05/25 03:46:05;;;;;;;22.13;11.57;;;;;;;;;;4992209;28;20062;-47
2022/05/25 03:48:32;;;;;;;25.42;11.30;;;;;;;;;;4991760;28;20061;-43
2022/05/25 03:50:59;;;;;;;23.15;11.13;;;;;;;;;;4992096;28;20023;-44
2022/05/25 03:53:26;;;;;;;23.58;11.77;;;;;;;;;;4993101;28;20081;-43
2022/05/25 03:55:53;;;;;;;23.40;11.85;;;;;;;;;;4995796;28;20049;-46
2022/05/25 03:58:20;;;;;;;21.55;11.13;;;;;;;;;;4996021;28;20039;-42
2022/05/25 04:00:47;;;;;;;21.75;11.82;;;;;;;;;;4995716;28;20488;-44
2022/05/25 04:03:16;;;;;;;20.85;10.98;;;;;;;;;;4996197;28;20022;-43
2022/05/25 04:05:44;;;;;;;22.48;10.57;;;;;;;;;;4995956;28;20476;-45
2022/05/25 04:08:11;;;;;;;21.35;10.18;;;;;;;;;;4995566;28;20133;-42
2022/05/25 04:10:38;;;;;;;19.40;10.02;;;;;;;;;;4996002;28;20029;-46
2022/05/25 04:13:05;;;;;;;16.83;10.25;;;;;;;;;;4995178;28;20042;-45
2022/05/25 04:15:33;;;;;;;21.70;10.13;;;;;;;;;;4995887;28;20027;-43
2022/05/25 04:18:00;;;;;;;16.73;9.73;;;;;;;;;;4995466;28;20121;-43
2022/05/25 04:20:28;;;;;;;20.65;10.50;;;;;;;;;;4995283;28;20048;-42
2022/05/25 04:22:55;;;;;;;17.48;9.80;;;;;;;;;;4995673;28;20076;-43
2022/05/25 04:25:23;;;;;;;20.70;9.98;;;;;;;;;;4995266;28;20110;-46
2022/05/25 04:27:52;;;;;;;16.55;9.73;;;;;;;;;;4995390;28;20022;-43
2022/05/25 04:30:20;;;;;;;17.30;9.50;;;;;;;;;;4995563;28;20023;-42
2022/05/25 04:32:47;;;;;;;14.40;9.15;;;;;;;;;;4995268;28;20026;-42
2022/05/25 04:35:15;;;;;;;17.67;9.60;;;;;;;;;;4995390;28;20045;-43
2022/05/25 04:37:58;;;;;;;17.58;9.38;;;;;;;;;;4994891;28;20073;-43
2022/05/25 04:40:25;;;;;;;16.85;9.15;;;;;;;;;;4999572;28;20030;-42
2022/05/25 04:42:53;;;;;;;15.85;9.05;;;;;;;;;;4999904;28;20488;-46
2022/05/25 04:45:21;;;;;;;15.90;9.18;;;;;;;;;;5004779;28;20072;-42
2022/05/25 04:47:47;;;;;;;13.40;8.65;;;;;;;;;;5004786;28;20034;-43
2022/05/25 04:50:16;;;;;;;13.90;8.70;;;;;;;;;;5002533;28;20469;-43
2022/05/25 04:52:43;;;;;;;15.15;8.85;;;;;;;;;;5004612;28;20025;-43
2022/05/25 04:57:19;;;;;;;13.75;8.40;;;;;;;;;;5003425;28;20053;-42
2022/05/25 04:57:57;;;;;;;15.93;8.32;;;;;;;;;;5003229;28;20156;-44
2022/05/25 05:00:24;;;;;;;15.48;8.90;;;;;;;;;;5003407;28;20030;-43
2022/05/25 05:02:52;;;;;;;14.75;9.02;;;;;;;;;;4992827;28;20030;-43
2022/05/25 05:05:19;;;;;;;16.52;8.80;;;;;;;;;;5003962;28;20085;-42
2022/05/25 05:07:46;;;;;;;15.57;8.90;;;;;;;;;;5002476;28;20693;-43
2022/05/25 05:10:13;;;;;;;15.95;9.05;;;;;;;;;;5003116;28;20035;-46
2022/05/25 05:12:43;;;;;;;14.35;8.13;;;;;;;;;;5003704;28;20032;-44
2022/05/25 05:15:10;;;;;;;16.02;7.85;;;;;;;;;;4995184;28;20053;-44
2022/05/25 05:17:37;;;;;;;14.00;8.88;;;;;;;;;;5002902;28;20026;-44
2022/05/25 05:20:05;;;;;;;13.85;8.55;;;;;;;;;;5003189;28;20502;-42
2022/05/25 05:22:32;;;;;;;16.77;8.30;;;;;;;;;;5002084;28;20031;-42
2022/05/25 05:24:59;;;;;;;15.48;8.65;;;;;;;;;;5003283;28;20042;-44
2022/05/25 05:27:26;;;;;;;14.07;8.45;;;;;;;;;;5002803;28;20030;-45
2022/05/25 05:29:53;;;;;;;14.00;8.05;;;;;;;;;;5002634;28;20052;-44
2022/05/25 05:32:20;;;;;;;12.90;7.07;;;;;;;;;;5004197;28;20044;-43
2022/05/25 05:34:47;;;;;;;15.20;8.50;;;;;;;;;;5003102;28;20109;-43
2022/05/25 05:37:20;;;;;;;13.13;8.05;;;;;;;;;;5001365;28;20485;-42
2022/05/25 05:39:46;;;;;;;;;;;;;;;;;;5002488;28;20035;-42
2022/05/25 05:42:15;;;;;;;13.57;7.90;;;;;;;;;;4993708;28;19918;-43
2022/05/25 05:45:03;;;;;;;14.00;8.23;;;;;;;;;;4993911;28;20069;-43
2022/05/25 05:47:32;;;;;;;12.30;7.78;;;;;;;;;;5006691;28;20036;-43
2022/05/25 05:49:59;;;;;;;15.07;7.60;;;;;;;;;;5013664;28;20076;-42
2022/05/25 05:52:27;;;;;;;12.18;8.07;;;;;;;;;;5007219;28;20061;-42
2022/05/25 05:54:54;;;;;;;13.77;7.78;;;;;;;;;;5001172;28;20030;-44
2022/05/25 05:57:21;;;;;;;11.38;7.32;;;;;;;;;;4993777;28;20404;-44
2022/05/25 05:59:48;;;;;;;12.85;7.40;;;;;;;;;;4993423;28;20436;-48
2022/05/25 06:02:15;;;;;;;11.80;7.40;;;;;;;;;;4993863;28;20038;-47
2022/05/25 06:04:41;;;;;;;11.05;7.43;;;;;;;;;;4993236;28;20110;-48
2022/05/25 06:07:08;;;;;;;10.23;6.53;;;;;;;;;;4993397;28;20022;-50
2022/05/25 06:09:35;;;;;;;11.18;7.20;;;;;;;;;;4993550;28;20481;-43
2022/05/25 06:12:02;;;;;;;9.95;6.72;;;;;;;;;;4992894;28;20488;-46
2022/05/25 06:14:29;;;;;;;12.10;7.75;;;;;;;;;;4993678;28;20018;-44
2022/05/25 06:19:42;;;;;;;12.55;6.72;;;;;;;;;;4993292;28;20045;-47
2022/05/25 06:22:12;;;;;;;15.02;7.93;;;;;;;;;;4993715;28;20041;-50
2022/05/25 06:24:46;;;;;;;12.98;7.70;;;;;;;;;;4992941;28;20038;-44
2022/05/25 06:27:14;;;;;;;13.30;7.00;;;;;;;;;;4993492;28;20447;-44
2022/05/25 06:29:43;;;;;;;11.10;7.18;;;;;;;;;;4992624;28;20042;-50
2022/05/25 06:32:10;;;;;;;10.05;6.38;;;;;;;;;;4993507;28;20053;-48
2022/05/25 06:34:38;;;;;;;12.05;6.80;;;;;;;;;;4993022;28;20037;-46
2022/05/25 06:37:06;;;;;;;11.73;7.30;;;;;;;;;;4992538;28;20113;-44
2022/05/25 06:39:38;;;;;;;10.40;6.95;;;;;;;;;;4993354;28;20037;-48
2022/05/25 06:42:06;;;;;;;11.88;7.30;;;;;;;;;;4992626;28;20022;-45
2022/05/25 06:44:33;;;;;;;10.88;6.80;;;;;;;;;;4993204;28;20113;-42
2022/05/25 06:47:01;;;;;;;9.38;6.50;;;;;;;;;;4992588;28;20030;-47
2022/05/25 06:49:28;;;;;;;11.20;6.70;;;;;;;;;;4992806;28;20031;-44
2022/05/25 06:51:55;;;;;;;10.57;6.90;;;;;;;;;;5005575;28;20463;-46
2022/05/25 06:54:22;;;;;;;10.73;6.45;;;;;;;;;;5009095;28;20028;-46
2022/05/25 06:56:50;;;;;;;10.13;6.40;;;;;;;;;;5009938;28;20435;-49
2022/05/25 06:59:17;;;;;;;10.85;6.47;;;;;;;;;;5011378;28;20381;-46
2022/05/25 07:01:45;;;;;;;10.98;6.85;;;;;;;;;;4993965;28;20440;-43
2022/05/25 07:04:12;;;;;;;8.93;5.93;;;;;;;;;;5011449;28;20034;-45
2022/05/25 07:06:40;;;;;;;10.57;6.28;;;;;;;;;;5011106;28;20141;-47
2022/05/25 07:09:07;;;;;;;12.55;6.78;;;;;;;;;;5011696;28;20032;-43
2022/05/25 07:11:34;;;;;;;8.43;6.07;;;;;;;;;;5011316;28;20491;-44
2022/05/25 07:14:02;;;;;;;8.77;5.60;;;;;;;;;;5011129;28;20041;-42
2022/05/25 07:16:31;;;;;;;11.27;6.03;;;;;;;;;;5012171;28;20026;-45
2022/05/25 07:18:58;;;;;;;9.80;6.80;;;;;;;;;;5011023;28;20073;-49
2022/05/25 07:21:27;;;;;;;9.60;5.90;;;;;;;;;;5012153;28;20486;-43
2022/05/25 07:23:55;;;;;;;8.30;5.70;;;;;;;;;;5012006;28;20032;-43
2022/05/25 07:26:23;;;;;;;10.60;6.18;;;;;;;;;;5011185;28;20401;-43
2022/05/25 07:28:52;;;;;;;9.73;5.85;;;;;;;;;;5011696;28;20054;-49
2022/05/25 07:31:22;;;;;;;9.52;5.65;;;;;;;;;;5011113;28;20480;-48
2022/05/25 07:33:51;;;;;;;9.35;6.10;;;;;;;;;;5011673;28;20022;-48
2022/05/25 07:36:18;;;;;;;9.15;6.20;;;;;;;;;;5011513;28;20052;-49
2022/05/25 07:38:48;;;;;;;8.63;5.97;;;;;;;;;;5011378;28;20030;-42
2022/05/25 07:41:17;;;;;;;9.50;5.85;;;;;;;;;;5011441;28;20022;-44
2022/05/25 07:43:45;;;;;;;11.00;6.30;;;;;;;;;;5011065;28;20030;-45
2022/05/25 07:46:12;;;;;;;8.63;5.43;;;;;;;;;;5011144;28;20061;-42
2022/05/25 07:48:39;;;;;;;9.52;5.70;;;;;;;;;;5011626;28;20109;-45
2022/05/25 07:51:06;;;;;;;9.52;6.25;;;;;;;;;;5011168;28;20472;-43
2022/05/25 07:56:19;;;;;;;8.45;5.07;;;;;;;;;;5010671;28;20403;-47
2022/05/25 07:58:46;;;;;;;8.52;5.45;;;;;;;;;;4993862;28;20033;-44
2022/05/25 08:01:17;;;;;;;8.65;5.47;;;;;;;;;;5011731;28;20026;-42
2022/05/25 08:06:31;;;;;;;8.70;5.47;;;;;;;;;;5013234;28;20570;-49
2022/05/25 08:08:58;;;;;;;9.48;5.30;;;;;;;;;;5012305;28;20374;-43
2022/05/25 08:11:25;;;;;;;6.88;5.30;;;;;;;;;;5011696;28;20072;-44
2022/05/25 08:13:55;;;;;;;6.57;4.95;;;;;;;;;;5011576;28;20085;-45
2022/05/25 08:16:22;;;;;;;7.90;5.05;;;;;;;;;;5011064;28;20042;-43
2022/05/25 08:18:49;;;;;;;9.55;4.85;;;;;;;;;;5011954;28;20471;-49
2022/05/25 08:21:15;;;;;;;7.53;4.72;;;;;;;;;;5011527;28;20040;-44
2022/05/25 08:23:42;;;;;;;7.07;4.97;;;;;;;;;;5011806;28;20036;-44
2022/05/25 08:26:10;;;;;;;6.43;4.63;;;;;;;;;;5011866;28;20454;-43
2022/05/25 08:28:36;;;;;;;6.43;4.70;;;;;;;;;;5010776;28;20704;-45
2022/05/25 08:31:03;;;;;;;6.60;4.65;;;;;;;;;;4994203;28;20038;-44
2022/05/25 08:33:31;;;;;;;7.60;4.70;;;;;;;;;;5011224;28;20030;-46
2022/05/25 08:36:00;;;;;;;8.07;4.53;;;;;;;;;;5011316;28;20026;-42
2022/05/25 08:38:28;;;;;;;6.40;4.07;;;;;;;;;;5011267;28;20168;-43
2022/05/25 08:40:55;;;;;;;7.15;3.75;;;;;;;;;;5014152;28;20022;-45
2022/05/25 08:43:23;;;;;;;6.55;4.10;;;;;;;;;;5014907;28;20365;-45
2022/05/25 08:45:55;;;;;;;5.40;4.18;;;;;;;;;;5014803;28;20032;-46
2022/05/25 08:48:23;;;;;;;5.72;4.28;;;;;;;;;;5014874;28;20036;-45
2022/05/25 08:50:59;;;;;;;5.80;3.58;;;;;;;;;;5015230;28;20385;-44
2022/05/25 08:53:26;;;;;;;5.03;3.70;;;;;;;;;;5014460;28;20030;-42
2022/05/25 08:55:59;;;;;;;5.65;3.60;;;;;;;;;;5014062;28;20399;-47
2022/05/25 08:58:28;;;;;;;9.77;4.05;;;;;;;;;;5010906;28;20034;-41
2022/05/25 09:00:59;;;;;;;5.35;3.72;;;;;;;;;;4995667;28;20120;-44
2022/05/25 09:03:39;;;;;;;8.25;4.30;;;;;;;;;;5013058;28;20022;-46
2022/05/25 09:06:25;;;;;;;6.15;3.97;;;;;;;;;;4996890;28;20491;-44
2022/05/25 09:08:52;;;;;;;7.82;3.92;;;;;;;;;;5014024;28;20041;-45
2022/05/25 09:11:21;;;;;;;6.30;4.07;;;;;;;;;;5013193;28;20484;-45
2022/05/25 09:14:03;;;;;;;8.93;3.83;;;;;;;;;;5013995;28;20028;-44
2022/05/25 09:16:30;;;;;;;;;;;;;;;;;;5012840;28;20026;-43
2022/05/25 09:19:03;;;;;;;8.02;3.75;;;;;;;;;;5013542;28;19920;-44
2022/05/25 09:21:37;;;;;;;6.15;3.75;;;;;;;;;;5012845;28;20802;-42
2022/05/25 09:24:15;;;;;;;5.65;3.45;;;;;;;;;;5013240;28;20037;-43
2022/05/25 09:26:42;;;;;;;8.55;3.70;;;;;;;;;;5013319;28;20396;-43
2022/05/25 09:29:10;;;;;;;5.43;3.35;;;;;;;;;;5013204;28;20061;-43
2022/05/25 09:31:42;;;;;;;6.10;3.80;;;;;;;;;;5013862;28;20045;-43
2022/05/25 09:34:11;;;;;;;5.30;3.47;;;;;;;;;;5012463;28;20025;-42
2022/05/25 09:36:53;;;;;;;7.80;3.33;;;;;;;;;;5013589;28;20576;-44
2022/05/25 09:39:30;;;;;;;7.03;3.05;;;;;;;;;;5012313;28;20212;-44
2022/05/25 09:42:02;;;;;;;4.13;3.30;;;;;;;;;;5013095;28;20095;-45
2022/05/25 09:44:30;;;;;;;4.32;3.30;;;;;;;;;;5011948;28;20045;-43
2022/05/25 09:46:57;;;;;;;5.72;3.65;;;;;;;;;;5012835;28;20045;-45
2022/05/25 09:49:31;;;;;;;4.90;3.38;;;;;;;;;;4994924;28;20030;-44
2022/05/25 09:52:02;;;;;;;4.65;3.20;;;;;;;;;;5012322;28;20032;-45
2022/05/25 09:54:31;;;;;;;6.15;3.83;;;;;;;;;;5011455;28;20061;-43
2022/05/25 09:57:02;;;;;;;4.47;3.22;;;;;;;;;;5012151;28;20042;-47
2022/05/25 09:59:37;;;;;;;5.05;3.50;;;;;;;;;;5012457;28;20110;-42
2022/05/25 10:02:30;;;;;;;7.00;3.45;;;;;;;;;;5012611;28;20714;-45
2022/05/25 10:04:56;;;;;;;;;;;;;;;;;;5008445;28;20038;-43
2022/05/25 10:07:26;;;;;;;3.97;3.10;;;;;;;;;;5012219;28;19944;-50
2022/05/25 10:09:53;;;;;;;5.75;3.10;;;;;;;;;;5012902;28;20026;-45
2022/05/25 10:12:27;;;;;;;4.88;3.47;;;;;;;;;;5013071;28;20398;-48
2022/05/25 10:14:59;;;;;;;6.80;3.50;;;;;;;;;;5011398;28;20365;-47
2022/05/25 10:17:31;;;;;;;4.30;3.20;;;;;;;;;;4994480;28;20045;-50
2022/05/25 10:20:01;;;;;;;5.60;3.00;;;;;;;;;;5012854;28;20496;-49
2022/05/25 10:22:38;;;;;;;4.20;3.17;;;;;;;;;;5012466;28;20088;-48
2022/05/25 10:25:11;;;;;;;3.63;3.05;;;;;;;;;;5012744;28;20100;-45
2022/05/25 10:27:43;;;;;;;5.97;3.30;;;;;;;;;;5011044;28;20175;-46
2022/05/25 10:39:13;;;;;;;6.88;2.53;;;;;;;;;;5012549;28;20064;-45
2022/05/25 10:41:43;;;;;;;3.78;2.55;;;;;;;;;;5011970;28;20065;-45
2022/05/25 10:44:22;;;;;;;3.35;2.53;;;;;;;;;;5011873;28;20042;-47
2022/05/25 10:46:59;;;;;;;4.07;2.70;;;;;;;;;;5011781;28;20117;-48
2022/05/25 10:49:26;;;;;;;4.88;3.20;;;;;;;;;;5012157;28;20036;-45
2022/05/25 10:52:01;;;;;;;3.38;2.45;;;;;;;;;;5012235;28;20038;-44
2022/05/25 10:54:45;;;;;;;6.38;2.50;;;;;;;;;;5011600;28;20048;-44
2022/05/25 10:57:18;;;;;;;3.22;2.33;;;;;;;;;;5011792;28;20391;-48
2022/05/25 10:59:51;;;;;;;3.00;2.20;;;;;;;;;;5010781;28;20092;-42
2022/05/25 11:02:38;;;;;;;3.85;2.40;;;;;;;;;;5011855;28;20026;-49
2022/05/25 11:05:17;;;;;;;9.93;2.85;;;;;;;;;;4961867;28;20065;-47
2022/05/25 11:07:45;;;;;;;3.47;2.03;;;;;;;;;;5011840;28;20160;-43
2022/05/25 11:10:24;;;;;;;5.07;2.67;;;;;;;;;;4992754;28;20499;-45
2022/05/25 11:12:54;;;;;;;3.45;2.05;;;;;;;;;;5011823;28;20025;-43
2022/05/25 11:15:27;;;;;;;3.80;2.10;;;;;;;;;;5011097;28;20139;-44
2022/05/25 11:18:03;;;;;;;4.13;2.35;;;;;;;;;;5011115;28;20046;-45
2022/05/25 11:20:37;;;;;;;5.32;1.95;;;;;;;;;;5011163;28;20034;-46
2022/05/25 11:23:22;;;;;;;4.57;1.90;;;;;;;;;;5011023;28;20503;-44
2022/05/25 11:25:58;;;;;;;5.82;2.15;;;;;;;;;;5012051;28;20026;-43
2022/05/25 11:28:28;;;;;;;5.80;1.90;;;;;;;;;;5011051;28;20054;-46
2022/05/25 11:31:11;;;;;;;3.60;2.00;;;;;;;;;;5010914;28;20030;-45
2022/05/25 11:33:42;;;;;;;4.65;2.50;;;;;;;;;;5012036;28;20030;-47
2022/05/25 11:36:12;;;;;;;4.28;1.65;;;;;;;;;;5010821;28;20483;-42
2022/05/25 11:38:48;;;;;;;2.35;1.85;;;;;;;;;;5011322;28;20042;-43
2022/05/25 11:41:39;;;;;;;2.97;2.25;;;;;;;;;;5010924;28;20113;-49
2022/05/25 11:44:24;;;;;;;2.05;1.85;;;;;;;;;;5011722;28;20369;-48
2022/05/25 11:46:51;;;;;;;5.88;2.40;;;;;;;;;;5011720;28;20033;-42
2022/05/25 11:49:18;;;;;;;2.88;1.98;;;;;;;;;;5012007;28;20121;-47
2022/05/25 11:51:55;;;;;;;3.70;2.47;;;;;;;;;;5011521;28;20436;-44
2022/05/25 11:54:40;;;;;;;3.65;2.25;;;;;;;;;;5011180;28;20116;-45
2022/05/25 11:57:07;;;;;;;3.72;1.90;;;;;;;;;;5011503;28;20053;-49
2022/05/25 11:59:52;;;;;;;2.67;2.00;;;;;;;;;;5011592;28;20061;-44
2022/05/25 12:02:27;;;;;;;2.42;1.67;;;;;;;;;;5011492;28;20030;-44
2022/05/25 12:05:01;;;;;;;3.17;2.03;;;;;;;;;;5011509;28;20029;-46
2022/05/25 12:07:39;;;;;;;2.60;2.30;;;;;;;;;;5008610;28;20062;-45
2022/05/25 12:10:18;;;;;;;3.78;2.17;;;;;;;;;;5011249;28;20026;-45
2022/05/25 12:12:49;;;;;;;2.30;2.05;;;;;;;;;;5010772;28;20054;-43
2022/05/25 12:15:21;;;;;;;1.83;1.65;;;;;;;;;;5014000;28;20033;-45
2022/05/25 12:17:48;;;;;;;4.32;1.88;;;;;;;;;;5014815;28;20033;-44
2022/05/25 12:20:30;;;;;;;2.15;1.65;;;;;;;;;;5014808;28;20041;-46
2022/05/25 12:22:59;;;;;;;2.20;1.55;;;;;;;;;;5013563;28;20062;-48
2022/05/25 12:25:27;;;;;;;4.07;2.22;;;;;;;;;;5013781;28;20052;-44
2022/05/25 12:27:57;;;;;;;2.35;1.52;;;;;;;;;;5014462;28;20038;-43
2022/05/25 12:30:33;;;;;;;3.88;1.98;;;;;;;;;;5015170;28;20113;-43
2022/05/25 12:33:01;;;;;;;2.53;1.83;;;;;;;;;;5014344;28;20030;-43
2022/05/25 12:35:31;;;;;;;2.38;1.70;;;;;;;;;;5015312;28;20044;-42
2022/05/25 12:38:00;;;;;;;4.13;1.60;;;;;;;;;;5014463;28;20061;-47
2022/05/25 12:40:26;;;;;;;4.15;1.50;;;;;;;;;;5014934;28;20026;-47
2022/05/25 12:42:54;;;;;;;1.80;1.30;;;;;;;;;;5015169;28;20026;-44
2022/05/25 12:48:31;;;;;;;3.45;1.70;;;;;;;;;;5014149;28;20111;-45
2022/05/25 12:51:12;;;;;;;3.67;1.58;;;;;;;;;;5015152;28;20064;-43
2022/05/25 12:53:52;;;;;;;2.60;1.50;;;;;;;;;;5014779;28;20038;-45
2022/05/25 12:56:19;;;;;;;4.45;1.70;;;;;;;;;;5013384;28;20124;-45
2022/05/25 12:58:52;;;;;;;4.78;1.67;;;;;;;;;;5014289;28;20038;-44
2022/05/25 13:01:28;;;;;;;1.65;1.20;;;;;;;;;;4996137;28;20427;-46
2022/05/25 13:03:55;;;;;;;7.40;1.42;;;;;;;;;;5013338;28;20468;-43
2022/05/25 13:06:38;;;;;;;3.20;1.10;;;;;;;;;;5014193;28;20022;-43
2022/05/25 13:09:23;;;;;;;2.60;1.55;;;;;;;;;;5013479;28;20117;-43
2022/05/25 13:11:58;;;;;;;2.83;1.80;;;;;;;;;;5013794;28;20030;-44
2022/05/25 13:14:25;;;;;;;3.08;1.52;;;;;;;;;;5013593;28;20034;-44
2022/05/25 13:17:00;;;;;;;2.22;1.65;;;;;;;;;;5013449;28;20040;-43
2022/05/25 13:19:47;;;;;;;1.75;1.40;;;;;;;;;;5013338;28;20605;-46
2022/05/25 13:22:21;;;;;;;3.50;1.90;;;;;;;;;;4994385;28;20419;-44
2022/05/25 13:24:48;;;;;;;6.15;1.52;;;;;;;;;;4993532;28;20030;-47
2022/05/25 13:27:19;;;;;;;6.55;1.50;;;;;;;;;;4994927;28;20026;-43
2022/05/25 13:29:55;;;;;;;4.47;1.65;;;;;;;;;;5007543;28;20049;-46
2022/05/25 13:32:31;;;;;;;3.70;1.77;;;;;;;;;;5013028;28;20025;-45
2022/05/25 13:34:58;;;;;;;6.30;1.50;;;;;;;;;;5012874;28;20033;-47
2022/05/25 13:37:25;;;;;;;3.10;1.90;;;;;;;;;;5012897;28;20040;-43
2022/05/25 13:39:52;;;;;;;3.33;1.67;;;;;;;;;;5012553;28;20088;-47
2022/05/25 13:42:20;;;;;;;4.13;1.30;;;;;;;;;;5012409;28;20034;-46
2022/05/25 13:44:50;;;;;;;3.80;1.52;;;;;;;;;;5011863;28;20034;-46
2022/05/25 13:47:21;;;;;;;4.32;1.50;;;;;;;;;;5011201;28;20022;-44
2022/05/25 13:49:50;;;;;;;3.65;1.27;;;;;;;;;;5012094;28;20032;-44
2022/05/25 13:52:19;;;;;;;3.30;1.55;;;;;;;;;;5012233;28;20030;-44
2022/05/25 13:54:48;;;;;;;3.03;1.10;;;;;;;;;;5011824;28;20045;-44
2022/05/25 13:57:24;;;;;;;6.60;1.75;;;;;;;;;;5012340;28;20041;-45
2022/05/25 13:59:51;;;;;;;4.57;1.45;;;;;;;;;;5011329;28;20033;-45
2022/05/25 14:02:22;;;;;;;2.50;1.30;;;;;;;;;;5011158;28;20025;-49
2022/05/25 14:04:50;;;;;;;3.60;1.27;;;;;;;;;;5012127;28;20033;-46
2022/05/25 14:07:27;;;;;;;2.05;1.30;;;;;;;;;;5011409;28;20392;-43
2022/05/25 14:12:40;;;;;;;3.38;1.10;;;;;;;;;;5011791;28;20510;-44
2022/05/25 14:15:08;;;;;;;4.22;1.10;;;;;;;;;;5012092;28;20038;-46
2022/05/25 14:17:35;;;;;;;3.45;1.15;;;;;;;;;;5012217;28;20040;-45
2022/05/25 14:20:05;;;;;;;4.18;1.20;;;;;;;;;;5011442;28;20084;-45
2022/05/25 14:22:33;;;;;;;1.27;0.90;;;;;;;;;;5010789;28;20041;-49
2022/05/25 14:25:11;;;;;;;2.80;1.23;;;;;;;;;;5011706;28;20088;-44
2022/05/25 14:27:39;;;;;;;4.70;1.15;;;;;;;;;;5011073;28;20030;-47
2022/05/25 14:30:07;;;;;;;2.53;1.08;;;;;;;;;;5011541;28;20397;-43
2022/05/25 14:32:37;;;;;;;8.77;1.20;;;;;;;;;;5012202;28;20395;-43
2022/05/25 14:35:06;;;;;;;3.67;1.15;;;;;;;;;;5010736;28;20034;-45
2022/05/25 14:37:35;;;;;;;1.92;1.20;;;;;;;;;;5010330;28;20125;-46
2022/05/25 14:40:05;;;;;;;3.08;1.60;;;;;;;;;;5011236;28;20084;-44
2022/05/25 14:42:32;;;;;;;8.02;1.60;;;;;;;;;;5011178;28;20496;-42
2022/05/25 14:45:05;;;;;;;2.15;1.00;;;;;;;;;;5008582;28;20651;-44
2022/05/25 14:47:35;;;;;;;7.18;1.20;;;;;;;;;;5010512;28;20033;-44
2022/05/25 14:50:18;;;;;;;5.25;1.50;;;;;;;;;;5010700;28;20048;-46
2022/05/25 14:52:51;;;;;;;6.25;1.58;;;;;;;;;;5011363;28;20068;-45
2022/05/25 14:55:18;;;;;;;4.60;1.58;;;;;;;;;;5009338;28;20025;-44
2022/05/25 14:57:45;;;;;;;5.75;1.73;;;;;;;;;;5010477;28;20038;-42
2022/05/25 15:00:13;;;;;;;4.22;1.73;;;;;;;;;;5011101;28;20037;-46
2022/05/25 15:02:41;;;;;;;4.60;1.90;;;;;;;;;;5010403;28;20042;-44
2022/05/25 15:05:22;;;;;;;8.88;2.65;;;;;;;;;;5010781;28;20030;-47
2022/05/25 15:07:55;;;;;;;11.27;2.80;;;;;;;;;;5010019;28;20032;-42
2022/05/25 15:10:29;;;;;;;7.72;2.45;;;;;;;;;;5011095;28;20034;-43
2022/05/25 15:12:56;;;;;;;9.75;3.03;;;;;;;;;;5011416;28;20033;-45
2022/05/25 15:18:33;;;;;;;7.15;2.75;;;;;;;;;;5011270;28;20152;-43
2022/05/25 15:21:15;;;;;;;6.73;3.50;;;;;;;;;;5010402;28;20387;-43
2022/05/25 15:23:47;;;;;;;6.38;2.97;;;;;;;;;;5010801;28;20022;-44